Terminal Aerodrome Forecast
Issued by NWS

Home | Current Version | Previous Version | Text Only | Print | Product List | Glossary On
Versions: 1 2 3 4 5 6 7 8 9 10 11 12 13 14 15
000
FTUS45 KRIW 132200 AAA
TAFCPR
TAF AMD
KCPR 132236Z 1323/1418 03015KT 1 1/2SM -SN SCT014 OVC030
     FM140100 02013KT P6SM VCSH SCT020 BKN035
     FM140300 36007KT P6SM BKN050
     FM140900 24005KT P6SM VCFG SCT002=

USA.gov is the U.S. government's official web portal to all federal, state and local government web resources and services.